createdAt,value
2016-03-07T00:00:59.829Z,0
2016-03-07T00:01:59.846Z,0
2016-03-07T00:02:59.866Z,0
2016-03-07T00:03:59.868Z,0
2016-03-07T00:04:59.902Z,0
2016-03-07T00:05:59.935Z,0
2016-03-07T00:06:59.954Z,0
2016-03-07T00:07:59.957Z,0
2016-03-07T00:08:59.975Z,0
2016-03-07T00:09:59.993Z,0
2016-03-07T00:11:00.012Z,0
2016-03-07T00:12:00.062Z,0
2016-03-07T00:13:00.033Z,0
2016-03-07T00:14:00.051Z,0
2016-03-07T00:15:00.053Z,0
2016-03-07T00:16:00.073Z,0
2016-03-07T00:17:00.090Z,0
2016-03-07T00:18:00.108Z,0
2016-03-07T00:19:00.143Z,0
2016-03-07T00:20:00.255Z,0
2016-03-07T00:21:00.148Z,0
2016-03-07T00:22:00.167Z,0
2016-03-07T00:23:00.184Z,0
2016-03-07T00:24:00.202Z,0
2016-03-07T00:25:00.222Z,0
2016-03-07T00:26:00.271Z,0
2016-03-07T00:27:00.241Z,0
2016-03-07T00:28:00.276Z,0
2016-03-07T00:29:00.294Z,0
2016-03-07T00:30:00.297Z,0
2016-03-07T00:31:00.331Z,0
2016-03-07T00:32:00.333Z,0
2016-03-07T00:33:00.352Z,0
2016-03-07T00:34:00.402Z,0
2016-03-07T00:35:00.389Z,0
2016-03-07T00:36:00.391Z,0
2016-03-07T00:37:00.425Z,0
2016-03-07T00:38:00.429Z,0
2016-03-07T00:39:00.477Z,0
2016-03-07T00:40:00.480Z,0
2016-03-07T00:41:00.483Z,0
2016-03-07T00:42:00.501Z,0
2016-03-07T00:43:00.504Z,0
2016-03-07T00:44:00.538Z,0
2016-03-07T00:45:00.572Z,0
2016-03-07T00:46:00.558Z,0
2016-03-07T00:47:00.593Z,0
2016-03-07T00:48:00.595Z,0
2016-03-07T00:49:00.614Z,0
2016-03-07T00:50:00.664Z,0
2016-03-07T00:51:00.634Z,0
2016-03-07T00:52:00.669Z,0
2016-03-07T00:53:00.672Z,0
2016-03-07T00:54:00.705Z,0
2016-03-07T00:55:00.724Z,0
2016-03-07T00:56:00.727Z,0
2016-03-07T00:57:00.744Z,0
2016-03-07T00:58:00.794Z,0
2016-03-07T00:59:00.797Z,0
2016-03-07T01:00:00.784Z,0
2016-03-07T01:01:00.802Z,0
2016-03-07T01:02:00.836Z,0
2016-03-07T01:03:00.824Z,0
2016-03-07T01:04:00.857Z,0
2016-03-07T01:05:00.876Z,0
2016-03-07T01:06:00.863Z,0
2016-03-07T01:07:00.912Z,0
2016-03-07T01:08:00.900Z,0
2016-03-07T01:09:00.918Z,0
2016-03-07T01:10:00.967Z,0
2016-03-07T01:11:00.954Z,0
2016-03-07T01:12:00.988Z,0
2016-03-07T01:13:01.022Z,0
2016-03-07T01:14:01.009Z,0
2016-03-07T01:15:01.028Z,0
2016-03-07T01:16:01.030Z,0
2016-03-07T01:17:01.049Z,0
2016-03-07T01:18:01.098Z,0
2016-03-07T01:19:01.085Z,0
2016-03-07T01:20:01.119Z,0
2016-03-07T01:21:01.137Z,0
2016-03-07T01:22:01.140Z,0
2016-03-07T01:23:01.174Z,0
2016-03-07T01:24:01.161Z,0
2016-03-07T01:25:01.180Z,0
2016-03-07T01:26:01.245Z,0
2016-03-07T01:27:01.217Z,0
2016-03-07T01:28:01.266Z,0
2016-03-07T01:29:01.252Z,0
2016-03-07T01:30:01.319Z,0
2016-03-07T01:31:01.321Z,0
2016-03-07T01:32:01.307Z,0
2016-03-07T01:33:01.341Z,0
2016-03-07T01:34:01.329Z,0
2016-03-07T01:35:01.377Z,0
2016-03-07T01:36:01.397Z,0
2016-03-07T01:37:01.368Z,0
2016-03-07T01:38:01.401Z,0
2016-03-07T01:39:01.421Z,0
2016-03-07T01:40:01.423Z,0
2016-03-07T01:41:01.457Z,0
2016-03-07T01:42:01.459Z,0
2016-03-07T01:43:01.478Z,0
2016-03-07T01:44:01.496Z,0
2016-03-07T01:45:01.530Z,0
2016-03-07T01:46:01.517Z,0
2016-03-07T01:47:01.535Z,0
2016-03-07T01:48:01.554Z,0
2016-03-07T01:49:01.572Z,0
2016-03-07T01:50:01.622Z,0
2016-03-07T01:51:01.608Z,0
2016-03-07T01:52:01.643Z,0
2016-03-07T01:53:01.645Z,0
2016-03-07T01:54:01.648Z,0
2016-03-07T01:55:01.698Z,0
2016-03-07T01:56:01.700Z,0
2016-03-07T01:57:01.703Z,0
2016-03-07T01:58:01.722Z,0
2016-03-07T01:59:08.052Z,0
2016-03-07T02:00:01.757Z,0
2016-03-07T02:01:01.761Z,0
2016-03-07T02:02:01.810Z,0
2016-03-07T02:03:01.813Z,0
2016-03-07T02:04:01.831Z,0
2016-03-07T02:05:01.849Z,0
2016-03-07T02:06:01.852Z,0
2016-03-07T02:07:01.871Z,0
2016-03-07T02:08:01.935Z,0
2016-03-07T02:09:01.923Z,0
2016-03-07T02:10:01.941Z,0
2016-03-07T02:11:01.929Z,0
2016-03-07T02:12:01.946Z,0
2016-03-07T02:13:01.980Z,0
2016-03-07T02:14:02.015Z,0
2016-03-07T02:15:02.001Z,0
2016-03-07T02:16:01.879Z,0
2016-03-07T02:29:08.978Z,0
2016-03-07T02:29:21.493Z,0
2016-03-07T02:30:21.511Z,0
2016-03-07T02:31:21.561Z,0
2016-03-07T02:32:21.547Z,0
2016-03-07T02:33:21.581Z,0
2016-03-07T02:34:21.630Z,0
2016-03-07T02:35:20.836Z,0
2016-03-07T02:36:21.667Z,0
2016-03-07T02:37:21.624Z,0
2016-03-07T02:38:21.658Z,0
2016-03-07T02:39:21.707Z,0
2016-03-07T02:40:21.663Z,0
2016-03-07T02:41:21.712Z,0
2016-03-07T02:42:21.699Z,0
2016-03-07T02:43:21.718Z,0
2016-03-07T02:44:21.735Z,0
2016-03-07T02:45:21.739Z,0
2016-03-07T02:46:21.773Z,0
2016-03-07T02:47:21.776Z,0
2016-03-07T02:48:21.793Z,0
2016-03-07T02:49:21.827Z,0
2016-03-07T02:50:21.830Z,0
2016-03-07T02:51:21.864Z,0
2016-03-07T02:52:21.867Z,0
2016-03-07T02:53:21.870Z,0
2016-03-07T02:54:21.935Z,0
2016-03-07T02:55:21.906Z,0
2016-03-07T02:56:21.925Z,0
2016-03-07T02:57:21.942Z,0
2016-03-07T02:58:21.961Z,0
2016-03-07T02:59:21.964Z,0
2016-03-07T03:00:21.997Z,0
2016-03-07T03:01:22.017Z,0
2016-03-07T03:02:22.050Z,0
2016-03-07T03:03:22.037Z,0
2016-03-07T03:04:22.055Z,0
2016-03-07T03:05:22.074Z,0
2016-03-07T03:06:22.092Z,0
2016-03-07T03:07:22.125Z,0
2016-03-07T03:08:22.128Z,0
2016-03-07T03:09:22.147Z,0
2016-03-07T03:10:22.197Z,0
2016-03-07T03:11:22.168Z,0
2016-03-07T03:12:22.186Z,0
2016-03-07T03:13:22.221Z,0
2016-03-07T03:14:22.223Z,0
2016-03-07T03:15:22.241Z,0
2016-03-07T03:16:22.243Z,0
2016-03-07T03:17:22.263Z,0
2016-03-07T03:18:22.312Z,0
2016-03-07T03:19:22.299Z,0
2016-03-07T03:20:22.317Z,0
2016-03-07T03:21:22.351Z,0
2016-03-07T03:22:22.354Z,0
2016-03-07T03:23:22.387Z,0
2016-03-07T03:24:22.375Z,0
2016-03-07T03:25:22.393Z,0
2016-03-07T03:26:22.427Z,0
2016-03-07T03:27:22.429Z,0
2016-03-07T03:28:22.276Z,0
2016-03-07T03:29:22.514Z,0
2016-03-07T03:30:22.469Z,0
2016-03-07T03:31:22.487Z,0
2016-03-07T03:32:22.521Z,0
2016-03-07T03:33:22.539Z,0
2016-03-07T03:34:22.558Z,0
2016-03-07T03:35:22.592Z,0
2016-03-07T03:36:22.579Z,0
2016-03-07T03:37:22.581Z,0
2016-03-07T03:38:22.616Z,0
2016-03-07T03:39:22.618Z,0
2016-03-07T03:40:22.621Z,0
2016-03-07T03:41:22.671Z,0
2016-03-07T03:42:22.658Z,0
2016-03-07T03:43:22.691Z,0
2016-03-07T03:44:22.694Z,0
2016-03-07T03:45:22.713Z,0
2016-03-07T03:46:22.730Z,0
2016-03-07T03:47:22.749Z,0
2016-03-07T03:48:22.782Z,0
2016-03-07T03:49:22.770Z,0
2016-03-07T03:50:22.788Z,0
2016-03-07T03:51:22.823Z,0
2016-03-07T03:52:22.825Z,0
2016-03-07T03:53:22.843Z,0
2016-03-07T03:54:22.845Z,0
2016-03-07T03:55:22.895Z,0
2016-03-07T03:56:22.898Z,0
2016-03-07T03:57:22.901Z,0
2016-03-07T03:58:22.934Z,0
2016-03-07T03:59:22.954Z,0
2016-03-07T04:00:22.987Z,0
2016-03-07T04:01:22.959Z,0
2016-03-07T04:02:22.977Z,0
2016-03-07T04:03:23.026Z,0
2016-03-07T04:04:23.013Z,0
2016-03-07T04:05:23.017Z,0
2016-03-07T04:06:23.066Z,0
2016-03-07T04:07:23.069Z,0
2016-03-07T04:08:23.086Z,0
2016-03-07T04:09:23.089Z,0
2016-03-07T04:10:23.124Z,0
2016-03-07T04:11:23.173Z,0
2016-03-07T04:12:23.144Z,0
2016-03-07T04:13:23.163Z,0
2016-03-07T04:14:23.166Z,0
2016-03-07T04:15:23.184Z,0
2016-03-07T04:16:23.218Z,0
2016-03-07T04:17:23.251Z,0
2016-03-07T04:18:23.238Z,0
2016-03-07T04:19:23.257Z,0
2016-03-07T04:20:23.369Z,0
2016-03-07T04:21:23.293Z,0
2016-03-07T04:22:23.312Z,0
2016-03-07T04:23:23.314Z,0
2016-03-07T04:24:23.332Z,0
2016-03-07T04:25:23.398Z,0
2016-03-07T04:26:23.354Z,0
2016-03-07T04:27:23.372Z,0
2016-03-07T04:28:23.423Z,0
2016-03-07T04:29:23.425Z,0
2016-03-07T04:30:23.428Z,0
2016-03-07T04:31:23.445Z,0
2016-03-07T04:32:23.464Z,0
2016-03-07T04:33:23.497Z,0
2016-03-07T04:34:23.501Z,0
2016-03-07T04:35:23.742Z,0
2016-03-07T04:36:23.384Z,0
2016-03-07T04:37:23.558Z,0
2016-03-07T04:38:23.577Z,0
2016-03-07T04:39:23.579Z,0
2016-03-07T04:40:23.598Z,0
2016-03-07T04:41:23.667Z,0
2016-03-07T04:42:23.670Z,0
2016-03-07T04:43:23.640Z,0
2016-03-07T04:44:23.847Z,0
2016-03-07T04:45:23.662Z,0
2016-03-07T04:46:23.712Z,0
2016-03-07T04:47:23.729Z,0
2016-03-07T04:48:23.748Z,0
2016-03-07T04:49:23.720Z,0
2016-03-07T04:50:23.770Z,0
2016-03-07T04:51:23.787Z,0
2016-03-07T04:52:23.775Z,0
2016-03-07T04:53:23.809Z,0
2016-03-07T04:54:23.842Z,0
2016-03-07T04:55:23.830Z,0
2016-03-07T04:56:23.863Z,0
2016-03-07T04:57:23.881Z,0
2016-03-07T04:58:23.853Z,0
2016-03-07T04:59:23.934Z,0
2016-03-07T05:00:23.905Z,0
2016-03-07T05:01:23.955Z,0
2016-03-07T05:02:23.927Z,0
2016-03-07T05:03:23.804Z,0
2016-03-07T05:04:23.838Z,0
2016-03-07T05:05:23.996Z,0
2016-03-07T05:06:24.007Z,0
2016-03-07T05:07:24.026Z,0
2016-03-07T05:08:24.044Z,0
2016-03-07T05:09:24.047Z,0
2016-03-07T05:10:24.080Z,0
2016-03-07T05:11:24.083Z,0
2016-03-07T05:12:23.352Z,0
2016-03-07T05:13:24.135Z,0
2016-03-07T05:14:24.185Z,0
2016-03-07T05:15:24.140Z,0
2016-03-07T05:16:24.175Z,0
2016-03-07T05:17:24.209Z,0
2016-03-07T05:18:24.196Z,0
2016-03-07T05:19:24.245Z,0
2016-03-07T05:20:24.279Z,0
2016-03-07T05:21:24.234Z,0
2016-03-07T05:22:27.300Z,0
2016-03-07T05:23:24.287Z,0
2016-03-07T05:24:24.290Z,0
2016-03-07T05:25:24.308Z,0
2016-03-07T05:26:24.342Z,0
2016-03-07T05:27:24.330Z,0
2016-03-07T05:28:24.364Z,0
2016-03-07T05:29:24.397Z,0
2016-03-07T05:30:24.384Z,0
2016-03-07T05:31:24.418Z,0
2016-03-07T05:32:24.422Z,0
2016-03-07T05:33:24.439Z,0
2016-03-07T05:34:24.427Z,0
2016-03-07T05:35:24.476Z,0
2016-03-07T05:36:24.494Z,0
2016-03-07T05:37:24.497Z,0
2016-03-07T05:38:24.516Z,0
2016-03-07T05:39:24.533Z,0
2016-03-07T05:40:24.615Z,0
2016-03-07T05:41:24.555Z,0
2016-03-07T05:42:24.573Z,0
2016-03-07T05:43:24.607Z,0
2016-03-07T05:44:24.671Z,0
2016-03-07T05:45:24.643Z,0
2016-03-07T05:46:24.490Z,0
2016-03-07T05:47:24.665Z,0
2016-03-07T05:48:24.667Z,0
2016-03-07T05:49:24.701Z,0
2016-03-07T05:50:24.703Z,0
2016-03-07T05:51:24.691Z,0
2016-03-07T05:52:24.725Z,0
2016-03-07T05:53:24.759Z,0
2016-03-07T05:54:24.777Z,0
2016-03-07T05:55:24.781Z,0
2016-03-07T05:56:24.798Z,0
2016-03-07T05:57:24.817Z,0
2016-03-07T05:58:24.834Z,0
2016-03-07T05:59:24.759Z,0
2016-03-07T06:00:24.856Z,0
2016-03-07T06:01:24.890Z,0
2016-03-07T06:02:24.892Z,0
2016-03-07T06:03:24.895Z,0
2016-03-07T06:04:24.929Z,0
2016-03-07T06:05:24.947Z,0
2016-03-07T06:06:24.950Z,0
2016-03-07T06:07:24.968Z,0
2016-03-07T06:08:25.002Z,0
2016-03-07T06:09:25.005Z,0
2016-03-07T06:10:25.024Z,0
2016-03-07T06:11:25.135Z,0
2016-03-07T06:12:25.044Z,0
2016-03-07T06:13:25.078Z,0
2016-03-07T06:14:25.127Z,0
2016-03-07T06:15:25.099Z,0
2016-03-07T06:16:25.118Z,0
2016-03-07T06:17:25.151Z,0
2016-03-07T06:18:25.138Z,0
2016-03-07T06:19:25.140Z,0
2016-03-07T06:20:25.207Z,0
2016-03-07T06:21:25.193Z,0
2016-03-07T06:22:25.196Z,0
2016-03-07T06:23:25.230Z,0
2016-03-07T06:24:25.280Z,0
2016-03-07T06:25:25.236Z,0
2016-03-07T06:26:25.301Z,0
2016-03-07T06:27:25.287Z,0
2016-03-07T06:28:25.290Z,5
2016-03-07T06:29:25.340Z,5
2016-03-07T06:30:25.328Z,5
2016-03-07T06:31:25.377Z,5
2016-03-07T06:32:25.348Z,5
2016-03-07T06:33:25.382Z,5
2016-03-07T06:34:25.416Z,5
2016-03-07T06:35:25.450Z,5
2016-03-07T06:36:25.421Z,5
2016-03-07T06:37:25.455Z,5
2016-03-07T06:38:25.442Z,5
2016-03-07T06:39:25.461Z,5
2016-03-07T06:40:25.494Z,5
2016-03-07T06:41:25.497Z,5
2016-03-07T06:42:25.515Z,5
2016-03-07T06:43:25.535Z,5
2016-03-07T06:44:24.833Z,5
2016-03-07T06:45:25.602Z,5
2016-03-07T06:46:25.573Z,5
2016-03-07T06:47:25.451Z,5
2016-03-07T06:48:25.609Z,5
2016-03-07T06:49:25.629Z,5
2016-03-07T06:50:25.631Z,5
2016-03-07T06:51:25.649Z,5
2016-03-07T06:52:25.699Z,5
2016-03-07T06:53:25.687Z,5
2016-03-07T06:54:25.689Z,5
2016-03-07T06:55:25.754Z,5
2016-03-07T06:56:25.725Z,5
2016-03-07T06:57:25.770Z,5
2016-03-07T06:58:25.758Z,10
2016-03-07T06:59:25.746Z,10
2016-03-07T07:00:25.749Z,10
2016-03-07T07:01:25.737Z,10
2016-03-07T07:02:25.745Z,10
2016-03-07T07:03:25.789Z,10
2016-03-07T07:04:25.770Z,10
2016-03-07T07:05:25.815Z,10
2016-03-07T07:06:26.124Z,10
2016-03-07T07:07:25.826Z,10
2016-03-07T07:08:25.811Z,10
2016-03-07T07:09:25.828Z,10
2016-03-07T07:10:25.860Z,5
2016-03-07T07:11:25.845Z,5
2016-03-07T07:12:25.862Z,5
2016-03-07T07:13:25.895Z,10
2016-03-07T07:14:25.928Z,10
2016-03-07T07:15:25.916Z,10
2016-03-07T07:16:25.933Z,10
2016-03-07T07:17:25.956Z,10
2016-03-07T07:18:25.958Z,10
2016-03-07T07:19:25.977Z,10
2016-03-07T07:20:25.995Z,10
2016-03-07T07:21:26.013Z,10
2016-03-07T07:22:26.030Z,10
2016-03-07T07:23:26.048Z,10
2016-03-07T07:24:26.068Z,10
2016-03-07T07:25:26.070Z,10
2016-03-07T07:26:26.088Z,10
2016-03-07T07:27:26.106Z,10
2016-03-07T07:28:26.312Z,10
2016-03-07T07:29:26.127Z,10
2016-03-07T07:30:26.161Z,10
2016-03-07T07:31:26.211Z,15
2016-03-07T07:32:26.214Z,15
2016-03-07T07:33:26.185Z,15
2016-03-07T07:34:26.219Z,15
2016-03-07T07:35:26.222Z,15
2016-03-07T07:36:26.240Z,15
2016-03-07T07:37:26.414Z,10
2016-03-07T07:38:26.292Z,10
2016-03-07T07:39:26.280Z,10
2016-03-07T07:40:26.328Z,10
2016-03-07T07:41:26.347Z,10
2016-03-07T07:42:26.333Z,10
2016-03-07T07:43:26.384Z,10
2016-03-07T07:44:26.355Z,10
2016-03-07T07:45:26.374Z,5
2016-03-07T07:46:26.407Z,5
2016-03-07T07:47:26.442Z,5
2016-03-07T07:48:26.429Z,10
2016-03-07T07:49:26.447Z,10
2016-03-07T07:50:26.512Z,10
2016-03-07T07:51:26.468Z,10
2016-03-07T07:52:26.595Z,10
2016-03-07T07:53:26.629Z,10
2016-03-07T07:54:26.506Z,10
2016-03-07T07:55:26.540Z,10
2016-03-07T07:56:26.418Z,10
2016-03-07T07:57:26.562Z,10
2016-03-07T07:58:26.581Z,10
2016-03-07T07:59:26.723Z,10
2016-03-07T08:00:26.617Z,10
2016-03-07T08:01:26.635Z,10
2016-03-07T08:02:26.654Z,10
2016-03-07T08:03:26.687Z,10
2016-03-07T08:04:26.690Z,10
2016-03-07T08:05:26.692Z,10
2016-03-07T08:06:26.711Z,10
2016-03-07T08:07:26.775Z,10
2016-03-07T08:08:26.747Z,10
2016-03-07T08:09:26.781Z,10
2016-03-07T08:10:26.800Z,10
2016-03-07T08:11:26.802Z,10
2016-03-07T08:12:26.822Z,10
2016-03-07T08:13:26.871Z,10
2016-03-07T08:14:26.842Z,10
2016-03-07T08:15:26.861Z,10
2016-03-07T08:16:29.894Z,10
2016-03-07T08:17:26.882Z,10
2016-03-07T08:18:26.915Z,10
2016-03-07T08:19:26.933Z,10
2016-03-07T08:20:26.952Z,10
2016-03-07T08:21:26.954Z,10
2016-03-07T08:22:26.988Z,10
2016-03-07T08:23:26.990Z,10
2016-03-07T08:24:26.993Z,10
2016-03-07T08:25:27.028Z,10
2016-03-07T08:26:27.031Z,10
2016-03-07T08:27:27.034Z,10
2016-03-07T08:28:27.068Z,10
2016-03-07T08:29:27.070Z,10
2016-03-07T08:30:27.088Z,10
2016-03-07T08:31:27.106Z,10
2016-03-07T08:32:27.125Z,10
2016-03-07T08:33:27.143Z,10
2016-03-07T08:34:27.161Z,10
2016-03-07T08:35:27.195Z,10
2016-03-07T08:36:27.183Z,10
2016-03-07T08:37:27.231Z,10
2016-03-07T08:38:27.234Z,10
2016-03-07T08:39:27.253Z,10
2016-03-07T08:40:27.271Z,10
2016-03-07T08:41:27.275Z,10
2016-03-07T08:42:27.308Z,10
2016-03-07T08:43:27.311Z,10
2016-03-07T08:44:27.329Z,10
2016-03-07T08:45:27.363Z,10
2016-03-07T08:46:27.335Z,10
2016-03-07T08:47:27.369Z,10
2016-03-07T08:48:27.418Z,10
2016-03-07T08:49:27.404Z,10
2016-03-07T08:50:27.424Z,10
2016-03-07T08:51:27.441Z,10
2016-03-07T08:52:27.429Z,10
2016-03-07T08:53:27.478Z,10
2016-03-07T08:54:27.481Z,10
2016-03-07T08:55:27.515Z,10
2016-03-07T08:56:27.501Z,10
2016-03-07T08:57:27.551Z,10
2016-03-07T08:58:27.554Z,10
2016-03-07T08:59:27.573Z,10
2016-03-07T09:00:27.418Z,10
2016-03-07T09:01:27.625Z,10
2016-03-07T09:02:27.595Z,10
2016-03-07T09:03:27.631Z,10
2016-03-07T09:04:28.617Z,10
2016-03-07T09:05:27.651Z,10
2016-03-07T09:06:27.685Z,10
2016-03-07T09:07:27.687Z,10
2016-03-07T09:08:27.706Z,10
2016-03-07T09:09:27.724Z,10
2016-03-07T09:10:27.742Z,10
2016-03-07T09:11:27.761Z,10
2016-03-07T09:12:27.983Z,15
2016-03-07T09:13:27.828Z,10
2016-03-07T09:14:27.800Z,15
2016-03-07T09:15:27.850Z,15
2016-03-07T09:16:27.836Z,15
2016-03-07T09:17:27.839Z,15
2016-03-07T09:18:27.889Z,20
2016-03-07T09:19:27.877Z,20
2016-03-07T09:20:28.519Z,25
2016-03-07T09:21:27.929Z,20
2016-03-07T09:22:27.947Z,25
2016-03-07T09:23:27.950Z,20
2016-03-07T09:24:27.982Z,20
2016-03-07T09:25:27.985Z,20
2016-03-07T09:26:28.004Z,20
2016-03-07T09:27:28.007Z,20
2016-03-07T09:28:28.040Z,20
2016-03-07T09:29:28.043Z,20
2016-03-07T09:30:28.124Z,20
2016-03-07T09:31:28.081Z,20
2016-03-07T09:32:28.098Z,20
2016-03-07T09:33:28.117Z,20
2016-03-07T09:34:28.135Z,25
2016-03-07T09:35:28.154Z,25
2016-03-07T09:36:28.187Z,20
2016-03-07T09:37:28.174Z,20
2016-03-07T09:38:28.349Z,20
2016-03-07T09:39:28.258Z,20
2016-03-07T09:40:28.245Z,20
2016-03-07T09:41:28.248Z,20
2016-03-07T09:42:28.267Z,25
2016-03-07T09:43:28.550Z,25
2016-03-07T09:44:28.303Z,25
2016-03-07T09:45:28.337Z,25
2016-03-07T09:46:28.339Z,25
2016-03-07T09:47:28.374Z,25
2016-03-07T09:48:28.376Z,30
2016-03-07T09:49:28.410Z,40
2016-03-07T09:50:28.412Z,45
2016-03-07T09:51:28.446Z,40
2016-03-07T09:52:28.433Z,35
2016-03-07T09:53:28.483Z,30
2016-03-07T09:54:28.471Z,25
2016-03-07T09:55:28.488Z,25
2016-03-07T09:56:28.507Z,25
2016-03-07T09:57:28.541Z,25
2016-03-07T09:58:28.544Z,30
2016-03-07T09:59:28.562Z,35
2016-03-07T10:00:28.580Z,35
2016-03-07T10:01:28.615Z,35
2016-03-07T10:02:28.617Z,40
2016-03-07T10:03:28.712Z,45
2016-03-07T10:04:28.637Z,45
2016-03-07T10:05:28.687Z,40
2016-03-07T10:06:28.707Z,40
2016-03-07T10:07:28.709Z,35
2016-03-07T10:08:28.727Z,30
2016-03-07T10:09:28.730Z,25
2016-03-07T10:10:28.779Z,30
2016-03-07T10:11:28.751Z,30
2016-03-07T10:12:28.801Z,30
2016-03-07T10:13:28.803Z,30
2016-03-07T10:14:28.837Z,30
2016-03-07T10:15:28.840Z,30
2016-03-07T10:16:28.890Z,25
2016-03-07T10:17:28.737Z,20
2016-03-07T10:18:28.896Z,20
2016-03-07T10:19:28.915Z,20
2016-03-07T10:20:28.933Z,20
2016-03-07T10:21:28.951Z,20
2016-03-07T10:22:28.970Z,20
2016-03-07T10:23:29.003Z,20
2016-03-07T10:24:29.007Z,20
2016-03-07T10:25:29.040Z,20
2016-03-07T10:26:29.043Z,20
2016-03-07T10:27:29.061Z,25
2016-03-07T10:28:29.079Z,25
2016-03-07T10:29:29.098Z,30
2016-03-07T10:30:29.117Z,30
2016-03-07T10:31:29.165Z,30
2016-03-07T10:32:29.168Z,25
2016-03-07T10:33:29.187Z,25
2016-03-07T10:34:29.205Z,25
2016-03-07T10:35:29.208Z,25
2016-03-07T10:36:29.100Z,25
2016-03-07T10:37:29.306Z,25
2016-03-07T10:38:29.278Z,25
2016-03-07T10:39:29.281Z,25
2016-03-07T10:40:29.330Z,25
2016-03-07T10:41:29.161Z,25
2016-03-07T10:42:29.367Z,30
2016-03-07T10:43:29.354Z,30
2016-03-07T10:44:29.357Z,30
2016-03-07T10:45:29.407Z,30
2016-03-07T10:46:29.425Z,30
2016-03-07T10:47:29.443Z,30
2016-03-07T10:48:29.446Z,30
2016-03-07T10:49:29.511Z,30
2016-03-07T10:50:29.513Z,30
2016-03-07T10:51:29.548Z,30
2016-03-07T10:52:29.519Z,30
2016-03-07T10:53:29.584Z,30
2016-03-07T10:54:29.556Z,30
2016-03-07T10:55:29.604Z,30
2016-03-07T10:56:29.437Z,30
2016-03-07T10:57:29.626Z,30
2016-03-07T10:58:29.645Z,30
2016-03-07T10:59:29.584Z,30
2016-03-07T11:00:30.128Z,30
2016-03-07T11:01:29.739Z,30
2016-03-07T11:02:29.731Z,30
2016-03-07T11:03:34.525Z,30
2016-03-07T11:04:29.808Z,35
2016-03-07T11:05:29.796Z,35
2016-03-07T11:06:29.798Z,45
2016-03-07T11:07:29.879Z,45
2016-03-07T11:08:29.835Z,45
2016-03-07T11:09:29.869Z,40
2016-03-07T11:10:29.888Z,35
2016-03-07T11:11:29.905Z,30
2016-03-07T11:12:29.940Z,30
2016-03-07T11:13:29.927Z,25
2016-03-07T11:14:29.960Z,25
2016-03-07T11:15:29.993Z,25
2016-03-07T11:16:29.996Z,20
2016-03-07T11:17:30.031Z,20
2016-03-07T11:18:29.862Z,20
2016-03-07T11:19:30.051Z,20
2016-03-07T11:20:30.054Z,20
2016-03-07T11:21:30.089Z,20
2016-03-07T11:22:30.106Z,15
2016-03-07T11:23:30.141Z,15
2016-03-07T11:24:30.143Z,15
2016-03-07T11:25:30.270Z,15
2016-03-07T11:26:30.164Z,15
2016-03-07T11:27:30.230Z,15
2016-03-07T11:28:30.216Z,20
2016-03-07T11:29:30.235Z,20
2016-03-07T11:30:30.269Z,20
2016-03-07T11:31:30.287Z,25
2016-03-07T11:32:30.305Z,30
2016-03-07T11:33:30.308Z,30
2016-03-07T11:34:30.358Z,30
2016-03-07T11:35:30.344Z,30
2016-03-07T11:36:30.394Z,30
2016-03-07T11:37:30.397Z,30
2016-03-07T11:38:30.400Z,35
2016-03-07T11:39:30.433Z,35
2016-03-07T11:40:30.498Z,35
2016-03-07T11:41:30.486Z,35
2016-03-07T11:42:30.488Z,35
2016-03-07T11:43:30.507Z,35
2016-03-07T11:44:30.931Z,30
2016-03-07T11:45:30.560Z,30
2016-03-07T11:46:30.593Z,30
2016-03-07T11:47:30.611Z,30
2016-03-07T11:48:30.615Z,30
2016-03-07T11:49:30.492Z,30
2016-03-07T11:50:30.650Z,30
2016-03-07T11:51:30.670Z,30
2016-03-07T11:52:30.704Z,30
2016-03-07T11:53:30.721Z,25
2016-03-07T11:54:30.723Z,25
2016-03-07T11:55:30.758Z,30
2016-03-07T11:56:30.761Z,25
2016-03-07T11:57:30.810Z,25
2016-03-07T11:58:30.813Z,30
2016-03-07T11:59:30.862Z,30
2016-03-07T12:00:30.912Z,35
2016-03-07T12:01:30.868Z,35
2016-03-07T12:02:30.886Z,30
2016-03-07T12:03:30.936Z,30
2016-03-07T12:04:30.922Z,30
2016-03-07T12:05:30.957Z,30
2016-03-07T12:06:30.806Z,30
2016-03-07T12:07:30.994Z,25
2016-03-07T12:08:30.996Z,30
2016-03-07T12:09:31.029Z,35
2016-03-07T12:10:31.049Z,35
2016-03-07T12:11:31.082Z,30
2016-03-07T12:12:31.084Z,30
2016-03-07T12:13:31.103Z,30
2016-03-07T12:14:31.168Z,30
2016-03-07T12:15:31.092Z,30
2016-03-07T12:16:31.173Z,35
2016-03-07T12:17:31.193Z,35
2016-03-07T12:18:31.226Z,40
2016-03-07T12:19:31.244Z,45
2016-03-07T12:20:31.247Z,50
2016-03-07T12:21:31.265Z,50
2016-03-07T12:22:31.299Z,45
2016-03-07T12:23:31.317Z,40
2016-03-07T12:24:31.336Z,30
2016-03-07T12:25:31.354Z,30
2016-03-07T12:26:31.356Z,30
2016-03-07T12:27:31.391Z,30
2016-03-07T12:28:31.409Z,35
2016-03-07T12:29:31.428Z,35
2016-03-07T12:30:31.368Z,35
2016-03-07T12:31:31.355Z,40
2016-03-07T12:32:31.498Z,40
2016-03-07T12:33:31.532Z,40
2016-03-07T12:34:31.378Z,40
2016-03-07T12:35:31.584Z,40
2016-03-07T12:36:31.586Z,40
2016-03-07T12:37:31.605Z,40
2016-03-07T12:38:31.624Z,40
2016-03-07T12:39:31.641Z,40
2016-03-07T12:40:31.676Z,45
2016-03-07T12:41:31.679Z,45
2016-03-07T12:42:31.697Z,50
2016-03-07T12:43:31.715Z,50
2016-03-07T12:44:31.827Z,50
2016-03-07T12:45:31.783Z,50
2016-03-07T12:46:31.801Z,50
2016-03-07T12:47:31.851Z,45
2016-03-07T12:48:31.837Z,40
2016-03-07T12:49:31.872Z,35
2016-03-07T12:50:31.921Z,35
2016-03-07T12:51:31.892Z,30
2016-03-07T12:52:31.912Z,30
2016-03-07T12:53:31.929Z,30
2016-03-07T12:54:31.963Z,30
2016-03-07T12:55:31.982Z,30
2016-03-07T12:56:32.000Z,30
2016-03-07T12:57:32.034Z,30
2016-03-07T12:58:32.067Z,30
2016-03-07T12:59:32.180Z,35
2016-03-07T13:00:32.151Z,35
2016-03-07T13:01:32.122Z,35
2016-03-07T13:02:32.141Z,35
2016-03-07T13:03:32.144Z,35
2016-03-07T13:04:32.208Z,40
2016-03-07T13:05:32.196Z,35
2016-03-07T13:06:32.230Z,35
2016-03-07T13:07:32.216Z,30
2016-03-07T13:08:32.266Z,30
2016-03-07T13:09:32.269Z,30
2016-03-07T13:10:32.318Z,35
2016-03-07T13:11:32.321Z,35
2016-03-07T13:12:32.371Z,35
2016-03-07T13:13:32.358Z,40
2016-03-07T13:14:32.392Z,40
2016-03-07T13:15:32.566Z,40
2016-03-07T13:16:32.444Z,40
2016-03-07T13:17:32.462Z,40
2016-03-07T13:18:32.496Z,40
2016-03-07T13:19:32.499Z,40
2016-03-07T13:20:32.596Z,40
2016-03-07T13:21:32.379Z,40
2016-03-07T13:22:32.554Z,40
2016-03-07T13:23:32.587Z,40
2016-03-07T13:24:32.607Z,35
2016-03-07T13:25:32.656Z,35
2016-03-07T13:26:32.674Z,35
2016-03-07T13:27:32.505Z,40
2016-03-07T13:28:32.758Z,40
2016-03-07T13:29:32.698Z,45
2016-03-07T13:30:32.731Z,45
2016-03-07T13:31:32.751Z,45
2016-03-07T13:32:32.769Z,40
2016-03-07T13:33:32.849Z,40
2016-03-07T13:34:32.883Z,35
2016-03-07T13:35:32.870Z,35
2016-03-07T13:36:32.873Z,35
2016-03-07T13:37:32.908Z,35
2016-03-07T13:38:32.910Z,35
2016-03-07T13:39:32.928Z,35
2016-03-07T13:40:32.977Z,35
2016-03-07T13:41:32.980Z,35
2016-03-07T13:42:32.999Z,35
2016-03-07T13:43:33.017Z,35
2016-03-07T13:44:33.036Z,35
2016-03-07T13:45:33.069Z,35
2016-03-07T13:46:32.962Z,35
2016-03-07T13:47:33.121Z,35
2016-03-07T13:48:33.155Z,35
2016-03-07T13:49:33.143Z,35
2016-03-07T13:50:33.193Z,35
2016-03-07T13:51:33.226Z,35
2016-03-07T13:52:33.212Z,35
2016-03-07T13:53:33.091Z,35
2016-03-07T13:54:33.265Z,35
2016-03-07T13:55:33.284Z,30
2016-03-07T13:56:33.301Z,30
2016-03-07T13:57:33.320Z,30
2016-03-07T13:58:33.370Z,30
2016-03-07T13:59:33.356Z,25
2016-03-07T14:00:33.422Z,25
2016-03-07T14:01:33.408Z,25
2016-03-07T14:02:33.474Z,30
2016-03-07T14:03:33.461Z,30
2016-03-07T14:04:33.495Z,35
2016-03-07T14:05:33.497Z,35
2016-03-07T14:06:33.533Z,40
2016-03-07T14:07:33.581Z,40
2016-03-07T14:08:33.569Z,40
2016-03-07T14:09:33.618Z,40
2016-03-07T14:10:33.621Z,40
2016-03-07T14:11:33.655Z,40
2016-03-07T14:12:33.673Z,35
2016-03-07T14:13:33.722Z,35
2016-03-07T14:14:33.710Z,35
2016-03-07T14:15:33.744Z,35
2016-03-07T14:16:33.747Z,35
2016-03-07T14:17:33.780Z,30
2016-03-07T14:18:33.657Z,30
2016-03-07T14:19:33.818Z,30
2016-03-07T14:20:33.835Z,30
2016-03-07T14:21:33.869Z,25
2016-03-07T14:22:33.887Z,25
2016-03-07T14:23:33.937Z,25
2016-03-07T14:24:33.955Z,25
2016-03-07T14:25:33.959Z,25
2016-03-07T14:26:33.976Z,25
2016-03-07T14:27:34.010Z,25
2016-03-07T14:28:34.044Z,25
2016-03-07T14:29:34.063Z,25
2016-03-07T14:30:34.065Z,25
2016-03-07T14:31:34.115Z,25
2016-03-07T14:32:34.133Z,25
2016-03-07T14:33:34.151Z,25
2016-03-07T14:34:34.154Z,25
2016-03-07T14:35:34.220Z,25
2016-03-07T14:36:34.222Z,25
2016-03-07T14:37:34.224Z,20
2016-03-07T14:38:34.244Z,20
2016-03-07T14:39:34.262Z,20
2016-03-07T14:40:34.327Z,20
2016-03-07T14:41:34.313Z,25
2016-03-07T14:42:34.332Z,25